createdAt,value
2022-11-16T00:01:30.118Z,52.00
2022-11-16T00:03:59.847Z,49.35
2022-11-16T00:06:27.276Z,55.08
2022-11-16T00:09:19.280Z,63.22
2022-11-16T00:11:45.976Z,57.80
2022-11-16T00:14:12.563Z,52.58
2022-11-16T00:16:39.218Z,56.95
2022-11-16T00:19:06.977Z,53.78
2022-11-16T00:21:34.134Z,54.38
2022-11-16T00:24:00.889Z,55.67
2022-11-16T00:26:27.503Z,55.97
2022-11-16T00:28:55.157Z,58.08
2022-11-16T00:31:21.876Z,54.00
2022-11-16T00:33:49.233Z,58.55
2022-11-16T00:36:16.707Z,58.60
2022-11-16T00:38:43.464Z,57.78
2022-11-16T00:41:10.536Z,61.17
2022-11-16T00:43:37.506Z,59.15
2022-11-16T00:46:05.024Z,54.33
2022-11-16T00:48:32.270Z,58.80
2022-11-16T00:50:59.017Z,55.10
2022-11-16T00:53:25.750Z,54.75
2022-11-16T00:55:52.331Z,49.03
2022-11-16T00:58:18.930Z,56.00
2022-11-16T01:00:45.562Z,56.35
2022-11-16T01:03:12.178Z,53.80
2022-11-16T01:05:39.544Z,48.72
2022-11-16T01:08:06.960Z,58.67
2022-11-16T01:10:33.884Z,61.70
2022-11-16T01:13:00.457Z,65.00
2022-11-16T01:15:28.314Z,73.13
2022-11-16T01:17:56.134Z,74.72
2022-11-16T01:20:25.745Z,64.15
2022-11-16T01:22:52.749Z,68.07
2022-11-16T01:25:20.239Z,66.10
2022-11-16T01:27:47.373Z,60.17
2022-11-16T01:30:16.602Z,55.25
2022-11-16T01:32:43.507Z,55.50
2022-11-16T01:35:15.643Z,55.83
2022-11-16T01:37:42.257Z,50.20
2022-11-16T01:40:10.133Z,49.45
2022-11-16T01:42:36.887Z,52.17
2022-11-16T01:45:06.627Z,55.10
2022-11-16T01:47:33.728Z,54.03
2022-11-16T01:50:11.672Z,53.40
2022-11-16T01:52:44.269Z,53.63
2022-11-16T01:55:12.013Z,53.15
2022-11-16T01:57:43.134Z,56.95
2022-11-16T02:00:12.245Z,54.70
2022-11-16T02:02:38.842Z,55.17
2022-11-16T02:05:06.895Z,57.85
2022-11-16T02:08:16.539Z,63.35
2022-11-16T02:11:21.223Z,57.55
2022-11-16T02:14:32.348Z,54.45
2022-11-16T02:17:21.424Z,53.45
2022-11-16T02:20:19.684Z,54.53
2022-11-16T02:22:53.074Z,58.47
2022-11-16T02:25:30.663Z,58.97
2022-11-16T02:28:15.051Z,58.67
2022-11-16T02:30:47.606Z,59.80
2022-11-16T02:33:20.180Z,65.25
2022-11-16T02:35:56.836Z,61.93
2022-11-16T02:38:35.944Z,56.95
2022-11-16T02:41:08.267Z,53.08
2022-11-16T02:43:42.694Z,58.90
2022-11-16T02:46:16.709Z,55.33
2022-11-16T02:48:50.121Z,49.67
2022-11-16T02:51:18.767Z,53.25
2022-11-16T02:54:08.638Z,54.95
2022-11-16T02:57:02.998Z,55.78
2022-11-16T02:59:36.698Z,64.28
2022-11-16T03:02:20.861Z,53.05
2022-11-16T03:04:52.161Z,56.08
2022-11-16T03:07:24.000Z,57.53
2022-11-16T03:09:52.073Z,53.38
2022-11-16T03:12:25.441Z,56.92
2022-11-16T03:14:59.371Z,65.93
2022-11-16T03:17:30.505Z,59.05
2022-11-16T03:20:12.372Z,67.38
2022-11-16T03:22:46.349Z,50.50
2022-11-16T03:25:16.454Z,53.03
2022-11-16T03:27:42.972Z,58.35
2022-11-16T03:30:24.518Z,60.70
2022-11-16T03:33:09.040Z,54.15
2022-11-16T03:35:46.176Z,51.72
2022-11-16T03:38:15.477Z,51.92
2022-11-16T03:40:45.869Z,52.40
2022-11-16T03:43:13.249Z,52.80
2022-11-16T03:45:40.704Z,54.33
2022-11-16T03:48:08.063Z,56.65
2022-11-16T03:50:34.637Z,54.05
2022-11-16T03:53:01.206Z,55.22
2022-11-16T03:55:27.789Z,59.38
2022-11-16T03:57:54.427Z,61.13
2022-11-16T04:00:21.049Z,59.88
2022-11-16T04:02:47.624Z,58.55
2022-11-16T04:05:32.655Z,57.92
2022-11-16T04:08:18.196Z,56.35
2022-11-16T04:11:03.347Z,58.42
2022-11-16T04:13:50.734Z,67.03
2022-11-16T04:16:36.219Z,64.63
2022-11-16T04:19:21.039Z,60.35
2022-11-16T04:22:12.414Z,54.15
2022-11-16T04:24:41.177Z,62.22
2022-11-16T04:27:29.640Z,61.08
2022-11-16T04:29:57.983Z,57.80
2022-11-16T04:32:43.049Z,51.38
2022-11-16T04:35:28.376Z,52.25
2022-11-16T04:37:57.076Z,49.00
2022-11-16T04:40:27.964Z,45.00
2022-11-16T04:42:56.626Z,48.78
2022-11-16T04:45:42.712Z,70.38
2022-11-16T04:48:09.958Z,79.07
2022-11-16T04:50:37.082Z,79.68
2022-11-16T04:53:05.281Z,95.75
2022-11-16T04:55:32.734Z,84.88
2022-11-16T04:57:59.772Z,95.18
2022-11-16T05:00:26.673Z,93.80
2022-11-16T05:02:58.211Z,96.38
2022-11-16T05:05:27.511Z,89.78
2022-11-16T05:07:54.118Z,69.85
2022-11-16T05:10:20.650Z,73.85
2022-11-16T05:12:47.287Z,83.47
2022-11-16T05:15:13.940Z,88.07
2022-11-16T05:17:40.545Z,65.63
2022-11-16T05:20:26.476Z,60.80
2022-11-16T05:22:55.053Z,75.00
2022-11-16T05:25:21.891Z,65.85
2022-11-16T05:27:48.787Z,72.38
2022-11-16T05:30:15.656Z,64.65
2022-11-16T05:32:42.196Z,64.80
2022-11-16T05:35:08.882Z,69.97
2022-11-16T05:37:35.596Z,58.95
2022-11-16T05:40:02.155Z,64.20
2022-11-16T05:42:28.724Z,68.63
2022-11-16T05:44:55.357Z,59.97
2022-11-16T05:47:22.026Z,67.07
2022-11-16T05:49:48.624Z,67.95
2022-11-16T05:52:15.237Z,86.13
2022-11-16T05:54:41.774Z,67.03
2022-11-16T05:57:08.407Z,70.47
2022-11-16T05:59:35.338Z,67.22
2022-11-16T06:02:03.988Z,70.10
2022-11-16T06:04:30.605Z,72.95
2022-11-16T06:06:57.212Z,69.97
2022-11-16T06:09:23.757Z,75.43
2022-11-16T06:11:50.376Z,67.13
2022-11-16T06:14:17.016Z,64.85
2022-11-16T06:16:43.669Z,63.97
2022-11-16T06:19:10.252Z,61.15
2022-11-16T06:21:36.896Z,65.68
2022-11-16T06:24:08.894Z,61.72
2022-11-16T06:26:36.284Z,65.88
2022-11-16T06:29:03.194Z,68.72
2022-11-16T06:31:30.258Z,80.35
2022-11-16T06:33:56.774Z,66.88
2022-11-16T06:36:23.383Z,65.78
2022-11-16T06:38:50.937Z,62.15
2022-11-16T06:41:17.625Z,63.55
2022-11-16T06:43:44.435Z,58.47
2022-11-16T06:46:11.088Z,72.28
2022-11-16T06:48:37.893Z,68.70
2022-11-16T06:51:04.624Z,64.53
2022-11-16T06:56:16.420Z,59.40
2022-11-16T06:58:43.208Z,55.65
2022-11-16T07:01:11.570Z,60.70
2022-11-16T07:03:38.624Z,54.28
2022-11-16T07:06:10.812Z,51.40
2022-11-16T07:08:38.016Z,53.22
2022-11-16T07:11:06.440Z,54.42
2022-11-16T07:13:34.405Z,54.38
2022-11-16T07:16:03.088Z,53.83
2022-11-16T07:18:29.773Z,55.47
2022-11-16T07:20:56.321Z,52.25
2022-11-16T07:23:22.945Z,54.10
2022-11-16T07:25:49.494Z,48.95
2022-11-16T07:28:16.064Z,48.95
2022-11-16T07:30:44.721Z,54.85
2022-11-16T07:33:11.367Z,55.97
2022-11-16T07:35:37.930Z,57.65
2022-11-16T07:38:04.546Z,58.35
2022-11-16T07:40:31.151Z,62.50
2022-11-16T07:42:58.760Z,68.25
2022-11-16T07:45:25.347Z,58.42
2022-11-16T07:47:53.533Z,57.25
2022-11-16T07:50:20.209Z,56.85
2022-11-16T07:52:46.890Z,64.10
2022-11-16T07:55:13.619Z,65.07
2022-11-16T07:57:40.457Z,59.00
2022-11-16T08:00:08.362Z,59.13
2022-11-16T08:02:34.993Z,59.03
2022-11-16T08:05:01.606Z,61.67
2022-11-16T08:07:28.210Z,69.10
2022-11-16T08:09:55.451Z,70.50
2022-11-16T08:12:22.077Z,64.07
2022-11-16T08:14:48.669Z,67.78
2022-11-16T08:17:15.752Z,67.20
2022-11-16T08:19:42.512Z,65.93
2022-11-16T08:22:09.494Z,60.28
2022-11-16T08:24:36.057Z,67.38
2022-11-16T08:27:03.117Z,64.03
2022-11-16T08:29:29.731Z,63.13
2022-11-16T08:31:56.297Z,61.67
2022-11-16T08:34:22.951Z,62.72
2022-11-16T08:36:49.613Z,47.55
2022-11-16T08:39:17.396Z,55.47
2022-11-16T08:41:44.413Z,54.95
2022-11-16T08:44:11.485Z,51.00
2022-11-16T08:46:38.099Z,52.38
2022-11-16T08:49:04.749Z,59.70
2022-11-16T08:54:15.235Z,46.22
2022-11-16T08:56:41.778Z,44.38
2022-11-16T08:59:08.327Z,50.25
2022-11-16T09:01:35.027Z,56.70
2022-11-16T09:04:01.793Z,48.28
2022-11-16T09:06:28.757Z,49.20
2022-11-16T09:08:56.281Z,38.47
2022-11-16T09:11:24.694Z,45.15
2022-11-16T09:16:37.127Z,69.25
2022-11-16T09:19:03.662Z,49.78
2022-11-16T09:21:30.686Z,43.15
2022-11-16T09:23:58.083Z,44.00
2022-11-16T09:26:25.424Z,45.78
2022-11-16T09:29:00.548Z,36.88
2022-11-16T09:31:28.671Z,40.45
2022-11-16T09:33:58.692Z,38.95
2022-11-16T09:36:27.528Z,40.30
2022-11-16T09:39:25.749Z,36.28
2022-11-16T09:42:18.750Z,37.70
2022-11-16T09:44:48.256Z,35.88
2022-11-16T09:47:21.867Z,35.90
2022-11-16T09:50:01.680Z,35.67
2022-11-16T09:52:37.088Z,33.85
2022-11-16T09:55:19.113Z,35.63
2022-11-16T09:57:47.401Z,32.80
2022-11-16T10:00:19.632Z,31.58
2022-11-16T10:03:00.392Z,26.27
2022-11-16T10:05:30.084Z,26.95
2022-11-16T10:08:09.882Z,31.42
2022-11-16T10:10:36.349Z,27.73
2022-11-16T10:13:14.989Z,30.85
2022-11-16T10:16:10.662Z,30.85
2022-11-16T10:19:25.227Z,30.65
2022-11-16T10:22:49.090Z,30.48
2022-11-16T10:25:38.109Z,29.25
2022-11-16T10:28:04.618Z,34.63
2022-11-16T10:30:40.384Z,27.83
2022-11-16T10:33:12.770Z,24.05
2022-11-16T10:35:49.207Z,29.00
2022-11-16T10:38:25.015Z,27.70
2022-11-16T10:41:18.453Z,24.50
2022-11-16T10:43:47.041Z,32.05
2022-11-16T10:46:31.445Z,26.67
2022-11-16T10:49:13.169Z,26.45
2022-11-16T10:51:39.814Z,27.60
2022-11-16T10:54:17.137Z,25.00
2022-11-16T10:56:47.185Z,24.15
2022-11-16T10:59:34.817Z,31.55
2022-11-16T11:02:21.192Z,25.05
2022-11-16T11:05:08.228Z,27.13
2022-11-16T11:07:40.045Z,25.33
2022-11-16T11:10:30.473Z,23.58
2022-11-16T11:13:26.275Z,29.38
2022-11-16T11:16:13.782Z,26.98
2022-11-16T11:18:40.383Z,23.85
2022-11-16T11:21:13.993Z,24.38
2022-11-16T11:23:51.612Z,25.38
2022-11-16T11:26:35.964Z,27.70
2022-11-16T11:29:22.625Z,25.70
2022-11-16T11:31:52.956Z,26.63
2022-11-16T11:34:23.657Z,28.50
2022-11-16T11:36:57.692Z,30.73
2022-11-16T11:44:49.815Z,26.95
2022-11-16T11:50:45.802Z,29.45
2022-11-16T11:53:24.636Z,25.40
2022-11-16T11:55:57.826Z,31.50
2022-11-16T11:58:34.026Z,29.02
2022-11-16T12:01:24.872Z,31.88
2022-11-16T12:04:13.871Z,29.23
2022-11-16T12:07:16.128Z,23.20
2022-11-16T12:10:01.001Z,30.85
2022-11-16T12:12:51.963Z,22.13
2022-11-16T12:15:35.443Z,21.45
2022-11-16T12:18:43.645Z,21.27
2022-11-16T12:21:19.606Z,22.48
2022-11-16T12:23:56.114Z,22.33
2022-11-16T12:26:44.909Z,24.35
2022-11-16T12:29:23.769Z,22.88
2022-11-16T12:32:13.545Z,18.40
2022-11-16T12:35:00.330Z,24.35
2022-11-16T12:37:45.249Z,18.65
2022-11-16T12:40:33.720Z,22.75
2022-11-16T12:43:21.368Z,20.00
2022-11-16T12:46:29.319Z,20.20
2022-11-16T12:49:24.353Z,20.42
2022-11-16T12:51:55.797Z,21.00
2022-11-16T12:55:19.093Z,20.42
2022-11-16T12:57:57.792Z,18.30
2022-11-16T13:00:24.410Z,22.00
2022-11-16T13:03:18.981Z,19.27
2022-11-16T13:05:59.362Z,20.05
2022-11-16T13:08:45.975Z,22.52
2022-11-16T13:11:20.890Z,20.08
2022-11-16T13:13:53.929Z,24.42
2022-11-16T13:16:22.869Z,26.05
2022-11-16T13:18:50.563Z,22.23
2022-11-16T13:21:34.072Z,16.48
2022-11-16T13:24:05.420Z,19.52
2022-11-16T13:27:09.468Z,19.08
2022-11-16T13:29:59.520Z,17.80
2022-11-16T13:32:44.537Z,19.05
2022-11-16T13:35:16.662Z,17.92
2022-11-16T13:37:50.913Z,14.55
2022-11-16T13:40:30.544Z,16.38
2022-11-16T13:43:09.247Z,21.05
2022-11-16T13:45:44.566Z,14.93
2022-11-16T13:48:25.586Z,18.13
2022-11-16T13:50:55.194Z,15.02
2022-11-16T13:56:57.397Z,19.27
2022-11-16T13:59:28.275Z,16.58
2022-11-16T14:02:04.162Z,16.77
2022-11-16T14:05:01.166Z,26.73
2022-11-16T14:07:47.368Z,28.77
2022-11-16T14:10:32.838Z,29.35
2022-11-16T14:13:00.412Z,27.05
2022-11-16T14:15:38.676Z,21.80
2022-11-16T14:18:08.698Z,25.95
2022-11-16T14:20:51.175Z,28.05
2022-11-16T14:23:47.001Z,30.40
2022-11-16T14:26:19.101Z,27.42
2022-11-16T14:29:07.548Z,29.73
2022-11-16T14:31:57.511Z,27.13
2022-11-16T14:34:48.128Z,32.97
2022-11-16T14:37:29.763Z,29.90
2022-11-16T14:40:14.801Z,28.60
2022-11-16T14:43:23.050Z,44.28
2022-11-16T14:45:56.802Z,33.47
2022-11-16T14:48:27.947Z,38.53
2022-11-16T14:51:22.929Z,50.58
2022-11-16T14:53:54.972Z,64.05
2022-11-16T14:56:22.029Z,59.30
2022-11-16T14:58:53.900Z,75.13
2022-11-16T15:01:31.291Z,76.15
2022-11-16T15:04:04.414Z,74.68
2022-11-16T15:06:40.688Z,73.18
2022-11-16T15:09:07.563Z,71.28
2022-11-16T15:11:58.201Z,89.70
2022-11-16T15:14:30.035Z,109.53
2022-11-16T15:16:59.050Z,118.60
2022-11-16T15:19:30.405Z,157.20
2022-11-16T15:21:59.612Z,157.50
2022-11-16T15:24:32.467Z,166.02
2022-11-16T15:27:34.076Z,142.45
2022-11-16T15:30:18.447Z,128.68
2022-11-16T15:32:47.172Z,117.88
2022-11-16T15:35:25.717Z,91.25
2022-11-16T15:38:14.599Z,95.40
2022-11-16T15:40:50.700Z,95.60
2022-11-16T15:43:19.162Z,86.95
2022-11-16T15:45:46.647Z,98.28
2022-11-16T15:48:20.052Z,100.22
2022-11-16T15:51:23.414Z,143.95
2022-11-16T15:53:53.281Z,144.48
2022-11-16T15:56:25.991Z,156.60
2022-11-16T15:58:58.959Z,156.20
2022-11-16T16:01:25.979Z,158.13
2022-11-16T16:04:05.972Z,147.27
2022-11-16T16:06:54.468Z,148.25
2022-11-16T16:09:39.266Z,207.65
2022-11-16T16:12:16.827Z,165.57
2022-11-16T16:14:44.268Z,153.45
2022-11-16T16:17:21.158Z,144.55
2022-11-16T16:19:55.747Z,149.20
2022-11-16T16:22:29.649Z,139.18
2022-11-16T16:24:56.600Z,116.03
2022-11-16T16:27:29.066Z,106.85
2022-11-16T16:29:58.005Z,103.57
2022-11-16T16:32:32.821Z,99.90
2022-11-16T16:35:02.094Z,84.82
2022-11-16T16:37:31.021Z,83.95
2022-11-16T16:39:58.439Z,96.90
2022-11-16T16:42:25.456Z,101.10
2022-11-16T16:44:54.365Z,88.15
2022-11-16T16:47:21.509Z,104.32
2022-11-16T16:49:50.906Z,128.82
2022-11-16T16:52:18.296Z,117.50
2022-11-16T16:54:44.928Z,119.00
2022-11-16T16:57:16.292Z,99.32
2022-11-16T16:59:45.320Z,88.90
2022-11-16T17:02:17.517Z,74.65
2022-11-16T17:04:49.081Z,87.50
2022-11-16T17:07:18.559Z,89.13
2022-11-16T17:09:45.678Z,93.80
2022-11-16T17:12:12.567Z,115.70
2022-11-16T17:14:39.199Z,114.40
2022-11-16T17:17:05.874Z,120.03
2022-11-16T17:19:32.929Z,109.93
2022-11-16T17:22:00.197Z,103.85
2022-11-16T17:24:26.893Z,111.97
2022-11-16T17:26:53.658Z,115.18
2022-11-16T17:29:20.291Z,107.30
2022-11-16T17:31:47.700Z,92.30
2022-11-16T17:34:14.660Z,97.53
2022-11-16T17:36:42.464Z,115.28
2022-11-16T17:39:09.456Z,128.95
2022-11-16T17:41:36.632Z,118.18
2022-11-16T17:44:04.528Z,122.55
2022-11-16T17:46:31.217Z,114.10
2022-11-16T17:48:57.975Z,98.32
2022-11-16T17:51:25.353Z,99.30
2022-11-16T17:53:53.783Z,103.65
2022-11-16T17:56:28.249Z,102.50
2022-11-16T17:58:58.620Z,121.63
2022-11-16T18:01:28.289Z,129.00
2022-11-16T18:03:56.060Z,111.60
2022-11-16T18:06:25.118Z,126.28
2022-11-16T18:08:52.985Z,119.15
2022-11-16T18:11:22.501Z,115.05
2022-11-16T18:13:53.576Z,118.03
2022-11-16T18:16:22.638Z,99.85
2022-11-16T18:18:50.000Z,100.85
2022-11-16T18:21:20.754Z,104.63
2022-11-16T18:23:47.982Z,106.10
2022-11-16T18:26:17.572Z,103.03
2022-11-16T18:28:51.761Z,110.93
2022-11-16T18:31:20.543Z,109.43
2022-11-16T18:33:49.241Z,99.53
2022-11-16T18:36:16.584Z,102.35
2022-11-16T18:38:43.211Z,108.13
2022-11-16T18:41:19.645Z,109.07
2022-11-16T18:43:56.082Z,111.68
2022-11-16T18:46:28.057Z,99.22
2022-11-16T18:48:55.958Z,96.32
2022-11-16T18:51:24.421Z,84.25
2022-11-16T18:53:51.064Z,81.45
2022-11-16T18:56:18.060Z,74.25
2022-11-16T18:58:53.366Z,70.75
2022-11-16T19:01:23.230Z,80.35
2022-11-16T19:03:51.176Z,74.15
2022-11-16T19:06:18.268Z,68.18
2022-11-16T19:08:50.427Z,69.63
2022-11-16T19:11:20.760Z,67.32
2022-11-16T19:13:56.264Z,74.03
2022-11-16T19:16:24.049Z,76.05
2022-11-16T19:18:50.630Z,77.47
2022-11-16T19:21:18.728Z,63.50
2022-11-16T19:23:48.045Z,60.72
2022-11-16T19:26:16.124Z,60.47
2022-11-16T19:28:44.877Z,53.25
2022-11-16T19:31:25.390Z,58.75
2022-11-16T19:34:07.060Z,58.38
2022-11-16T19:36:36.199Z,60.75
2022-11-16T19:39:04.222Z,56.15
2022-11-16T19:41:30.795Z,52.40
2022-11-16T19:43:59.959Z,59.60
2022-11-16T19:46:28.742Z,59.85
2022-11-16T19:48:56.189Z,62.05
2022-11-16T19:51:31.043Z,64.68
2022-11-16T19:53:59.323Z,62.58
2022-11-16T19:56:26.591Z,60.10
2022-11-16T19:58:53.359Z,58.97
2022-11-16T20:01:23.062Z,56.78
2022-11-16T20:03:50.046Z,54.17
2022-11-16T20:06:31.409Z,53.38
2022-11-16T20:09:03.943Z,51.40
2022-11-16T20:11:33.706Z,68.77
2022-11-16T20:14:00.799Z,59.95
2022-11-16T20:16:34.035Z,65.15
2022-11-16T20:19:05.482Z,60.55
2022-11-16T20:21:34.729Z,87.50
2022-11-16T20:24:06.815Z,77.68
2022-11-16T20:26:35.853Z,85.63
2022-11-16T20:29:03.041Z,89.00
2022-11-16T20:31:32.029Z,88.07
2022-11-16T20:34:04.478Z,82.78
2022-11-16T20:36:32.985Z,91.57
2022-11-16T20:39:00.305Z,93.57
2022-11-16T20:41:28.878Z,84.57
2022-11-16T20:43:57.453Z,94.22
2022-11-16T20:46:28.749Z,124.65
2022-11-16T20:48:57.349Z,140.55
2022-11-16T20:51:24.070Z,121.60
2022-11-16T20:53:50.759Z,131.18
2022-11-16T20:56:19.301Z,108.80
2022-11-16T20:58:46.875Z,103.47
2022-11-16T21:01:16.167Z,112.68
2022-11-16T21:03:44.625Z,122.72
2022-11-16T21:06:12.859Z,113.40
2022-11-16T21:08:40.504Z,114.97
2022-11-16T21:11:16.007Z,104.68
2022-11-16T21:14:01.530Z,115.00
2022-11-16T21:16:28.195Z,80.15
2022-11-16T21:18:55.642Z,77.53
2022-11-16T21:21:22.413Z,56.83
2022-11-16T21:23:51.935Z,58.60
2022-11-16T21:26:26.370Z,61.55
2022-11-16T21:28:53.377Z,64.90
2022-11-16T21:31:22.423Z,62.28
2022-11-16T21:33:49.006Z,65.35
2022-11-16T21:36:17.695Z,69.60
2022-11-16T21:38:45.220Z,69.05
2022-11-16T21:41:13.249Z,77.82
2022-11-16T21:43:42.722Z,72.85
2022-11-16T21:46:18.433Z,67.97
2022-11-16T21:48:46.959Z,68.28
2022-11-16T21:51:19.326Z,72.55
2022-11-16T21:53:46.078Z,67.40
2022-11-16T21:56:15.028Z,71.25
2022-11-16T21:58:42.104Z,90.13
2022-11-16T22:01:09.887Z,94.13
2022-11-16T22:03:37.062Z,69.25
2022-11-16T22:06:24.001Z,86.53
2022-11-16T22:08:50.632Z,83.25
2022-11-16T22:11:17.912Z,68.63
2022-11-16T22:13:44.449Z,68.40
2022-11-16T22:16:15.142Z,69.22
2022-11-16T22:18:42.307Z,70.35
2022-11-16T22:21:09.265Z,78.28
2022-11-16T22:23:36.455Z,96.00
2022-11-16T22:26:11.596Z,105.32
2022-11-16T22:28:39.355Z,143.23
2022-11-16T22:31:14.097Z,148.40
2022-11-16T22:33:41.384Z,120.97
2022-11-16T22:36:10.202Z,104.72
2022-11-16T22:38:37.413Z,91.95
2022-11-16T22:41:04.333Z,74.82
2022-11-16T22:43:32.552Z,69.65
2022-11-16T22:46:05.542Z,65.82
2022-11-16T22:48:34.112Z,96.50
2022-11-16T22:51:09.793Z,94.60
2022-11-16T22:53:36.648Z,93.82
2022-11-16T22:56:05.365Z,88.40
2022-11-16T22:58:31.955Z,91.75
2022-11-16T23:00:58.558Z,88.13
2022-11-16T23:03:25.180Z,82.82
2022-11-16T23:05:51.838Z,84.75
2022-11-16T23:08:18.421Z,78.75
2022-11-16T23:11:03.750Z,85.25
2022-11-16T23:13:48.785Z,90.57
2022-11-16T23:16:15.319Z,87.30
2022-11-16T23:18:41.860Z,89.35
2022-11-16T23:21:27.345Z,76.63
2022-11-16T23:24:12.363Z,60.35
2022-11-16T23:26:57.648Z,61.22
2022-11-16T23:29:24.263Z,62.38
2022-11-16T23:31:50.796Z,61.75
2022-11-16T23:34:17.383Z,61.00
2022-11-16T23:36:43.929Z,63.95
2022-11-16T23:39:10.627Z,57.58
2022-11-16T23:41:55.833Z,70.90
2022-11-16T23:44:22.396Z,58.28
2022-11-16T23:46:48.940Z,58.28
2022-11-16T23:49:15.502Z,62.15
2022-11-16T23:51:42.032Z,68.20
2022-11-16T23:54:08.631Z,64.40
2022-11-16T23:56:35.238Z,65.22
2022-11-16T23:59:01.790Z,70.75
